createdAt,value
2018-11-13T00:02:26.750Z,13.40
2018-11-13T00:05:00.537Z,14.07
2018-11-13T00:07:35.351Z,14.53
2018-11-13T00:10:10.047Z,14.13
2018-11-13T00:12:44.947Z,14.70
2018-11-13T00:15:18.819Z,15.93
2018-11-13T00:17:53.751Z,15.03
2018-11-13T00:20:27.531Z,15.43
2018-11-13T00:23:02.419Z,16.13
2018-11-13T00:25:36.221Z,15.67
2018-11-13T00:28:10.092Z,15.13
2018-11-13T00:30:43.840Z,14.77
2018-11-13T00:33:19.682Z,15.00
2018-11-13T00:35:53.532Z,15.67
2018-11-13T00:38:29.430Z,14.53
2018-11-13T00:41:03.167Z,14.27
2018-11-13T00:43:38.045Z,14.97
2018-11-13T00:46:11.794Z,14.17
2018-11-13T00:48:45.681Z,14.60
2018-11-13T00:51:19.485Z,16.37
2018-11-13T00:53:55.433Z,16.20
2018-11-13T00:56:29.189Z,15.97
2018-11-13T00:59:04.152Z,16.30
2018-11-13T01:01:37.958Z,16.90
2018-11-13T01:04:13.844Z,16.27
2018-11-13T01:06:47.608Z,14.77
2018-11-13T01:09:21.493Z,15.00
2018-11-13T01:11:55.437Z,14.27
2018-11-13T01:14:31.333Z,14.27
2018-11-13T01:17:05.154Z,15.07
2018-11-13T01:19:39.070Z,15.57
2018-11-13T01:22:12.824Z,14.80
2018-11-13T01:24:47.691Z,14.17
2018-11-13T01:27:21.477Z,14.20
2018-11-13T01:29:58.161Z,14.90
2018-11-13T01:32:31.896Z,15.00
2018-11-13T01:35:08.514Z,15.60
2018-11-13T01:37:42.336Z,15.93
2018-11-13T01:40:20.625Z,16.53
2018-11-13T01:42:54.356Z,16.10
2018-11-13T01:45:31.441Z,16.43
2018-11-13T01:48:05.309Z,16.03
2018-11-13T01:50:41.320Z,15.33
2018-11-13T01:53:15.063Z,15.97
2018-11-13T01:55:49.928Z,15.40
2018-11-13T01:58:23.697Z,15.77
2018-11-13T02:00:58.570Z,15.57
2018-11-13T02:03:32.340Z,16.63
2018-11-13T02:06:06.801Z,15.73
2018-11-13T02:08:40.561Z,16.13
2018-11-13T02:11:14.401Z,15.43
2018-11-13T02:13:48.148Z,15.50
2018-11-13T02:16:22.055Z,15.67
2018-11-13T02:18:55.793Z,15.00
2018-11-13T02:21:29.808Z,15.10
2018-11-13T02:24:03.588Z,14.57
2018-11-13T02:26:38.473Z,14.03
2018-11-13T02:29:12.297Z,14.20
2018-11-13T02:31:47.120Z,14.50
2018-11-13T02:34:20.892Z,14.23
2018-11-13T02:36:54.713Z,14.47
2018-11-13T02:39:28.489Z,14.53
2018-11-13T02:42:02.366Z,13.87
2018-11-13T02:44:36.293Z,13.93
2018-11-13T02:47:10.137Z,14.63
2018-11-13T02:49:44.040Z,14.20
2018-11-13T02:52:18.067Z,14.53
2018-11-13T02:54:51.862Z,15.43
2018-11-13T02:57:27.808Z,14.53
2018-11-13T03:00:01.620Z,15.10
2018-11-13T03:02:37.557Z,14.80
2018-11-13T03:05:14.055Z,14.97
2018-11-13T03:07:48.908Z,15.97
2018-11-13T03:10:22.732Z,15.90
2018-11-13T03:12:56.641Z,15.53
2018-11-13T03:15:30.414Z,15.30
2018-11-13T03:18:05.291Z,16.33
2018-11-13T03:20:39.390Z,15.80
2018-11-13T03:23:13.294Z,16.97
2018-11-13T03:25:47.059Z,16.07
2018-11-13T03:28:20.909Z,16.30
2018-11-13T03:30:54.748Z,16.23
2018-11-13T03:33:29.778Z,15.93
2018-11-13T03:36:03.528Z,16.23
2018-11-13T03:38:38.414Z,16.63
2018-11-13T03:41:12.165Z,17.43
2018-11-13T03:43:50.086Z,15.87
2018-11-13T03:46:23.819Z,15.87
2018-11-13T03:48:57.699Z,16.77
2018-11-13T03:51:31.467Z,15.90
2018-11-13T03:54:06.910Z,15.40
2018-11-13T03:56:40.663Z,16.73
2018-11-13T04:02:13.833Z,16.20
2018-11-13T04:04:47.623Z,16.23
2018-11-13T04:07:28.556Z,16.63
2018-11-13T04:10:02.344Z,17.13
2018-11-13T04:12:42.603Z,16.30
2018-11-13T04:15:17.742Z,16.37
2018-11-13T04:17:52.645Z,16.83
2018-11-13T04:20:26.443Z,17.10
2018-11-13T04:23:04.773Z,16.73
2018-11-13T04:25:38.622Z,17.00
2018-11-13T04:28:16.970Z,17.13
2018-11-13T04:30:50.961Z,16.90
2018-11-13T04:33:29.230Z,18.10
2018-11-13T04:36:03.010Z,16.47
2018-11-13T04:38:47.259Z,17.97
2018-11-13T04:41:21.054Z,17.00
2018-11-13T04:44:00.481Z,17.63
2018-11-13T04:46:34.268Z,17.33
2018-11-13T04:49:08.253Z,18.43
2018-11-13T04:51:42.089Z,18.40
2018-11-13T04:54:28.121Z,20.10
2018-11-13T04:57:01.938Z,19.37
2018-11-13T04:59:47.993Z,19.50
2018-11-13T05:02:21.830Z,20.53
2018-11-13T05:04:57.647Z,21.53
2018-11-13T05:07:31.443Z,20.07
2018-11-13T05:10:22.191Z,21.03
2018-11-13T05:12:55.967Z,22.63
2018-11-13T05:15:34.459Z,22.50
2018-11-13T05:18:08.287Z,21.97
2018-11-13T05:20:43.183Z,23.83
2018-11-13T05:23:17.080Z,22.97
2018-11-13T05:25:52.065Z,23.10
2018-11-13T05:28:25.911Z,22.83
2018-11-13T05:31:04.171Z,22.43
2018-11-13T05:33:38.019Z,21.97
2018-11-13T05:36:12.865Z,21.23
2018-11-13T05:38:46.695Z,23.27
2018-11-13T05:41:22.028Z,21.33
2018-11-13T05:43:55.863Z,23.07
2018-11-13T05:46:31.699Z,21.90
2018-11-13T05:49:05.973Z,21.97
2018-11-13T05:51:45.055Z,21.47
2018-11-13T05:54:18.878Z,21.90
2018-11-13T05:56:53.880Z,21.90
2018-11-13T05:59:27.646Z,22.63
2018-11-13T06:02:02.642Z,24.43
2018-11-13T06:04:36.555Z,23.20
2018-11-13T06:07:10.861Z,22.47
2018-11-13T06:09:44.660Z,22.10
2018-11-13T06:12:19.001Z,22.73
2018-11-13T06:14:52.835Z,23.20
2018-11-13T06:17:28.787Z,22.20
2018-11-13T06:20:03.181Z,22.10
2018-11-13T06:22:37.554Z,22.73
2018-11-13T06:25:13.169Z,22.77
2018-11-13T06:27:49.933Z,23.17
2018-11-13T06:30:24.871Z,23.20
2018-11-13T06:32:59.136Z,22.90
2018-11-13T06:35:32.938Z,22.80
2018-11-13T06:38:06.865Z,23.60
2018-11-13T06:40:40.726Z,23.97
2018-11-13T06:43:15.098Z,25.20
2018-11-13T06:45:48.951Z,23.67
2018-11-13T06:48:23.841Z,23.47
2018-11-13T06:50:57.706Z,23.43
2018-11-13T06:53:42.865Z,24.93
2018-11-13T06:56:21.090Z,23.80
2018-11-13T06:58:54.858Z,24.17
2018-11-13T07:01:29.716Z,23.90
2018-11-13T07:04:03.486Z,24.53
2018-11-13T07:06:41.498Z,23.63
2018-11-13T07:09:15.271Z,24.03
2018-11-13T07:11:51.325Z,25.47
2018-11-13T07:14:25.077Z,24.37
2018-11-13T07:17:00.052Z,26.77
2018-11-13T07:19:33.803Z,26.17
2018-11-13T07:22:11.848Z,25.90
2018-11-13T07:24:45.636Z,24.93
2018-11-13T07:27:22.938Z,26.90
2018-11-13T07:29:56.849Z,24.33
2018-11-13T07:32:30.832Z,23.97
2018-11-13T07:35:05.085Z,23.63
2018-11-13T07:37:40.124Z,24.50
2018-11-13T07:40:13.864Z,23.70
2018-11-13T07:42:47.854Z,23.17
2018-11-13T07:45:21.639Z,22.67
2018-11-13T07:48:01.696Z,24.90
2018-11-13T07:50:35.644Z,23.57
2018-11-13T07:53:11.005Z,23.77
2018-11-13T07:55:44.783Z,23.27
2018-11-13T07:58:24.328Z,22.80
2018-11-13T08:00:58.263Z,23.67
2018-11-13T08:03:35.913Z,22.27
2018-11-13T08:06:09.923Z,23.40
2018-11-13T08:08:44.332Z,22.50
2018-11-13T08:11:18.116Z,23.60
2018-11-13T08:13:55.346Z,23.13
2018-11-13T08:16:29.179Z,23.60
2018-11-13T08:19:04.677Z,22.60
2018-11-13T08:21:38.446Z,23.43
2018-11-13T08:24:18.595Z,24.20
2018-11-13T08:26:52.400Z,23.60
2018-11-13T08:32:24.677Z,24.77
2018-11-13T08:34:58.476Z,25.07
2018-11-13T08:37:32.379Z,23.20
2018-11-13T08:40:08.052Z,24.37
2018-11-13T08:42:42.395Z,23.57
2018-11-13T08:45:16.536Z,24.93
2018-11-13T08:47:50.494Z,25.00
2018-11-13T08:50:24.365Z,25.00
2018-11-13T08:52:58.466Z,24.23
2018-11-13T08:55:32.260Z,25.43
2018-11-13T08:58:07.055Z,25.20
2018-11-13T09:00:40.848Z,23.60
2018-11-13T09:03:14.682Z,23.60
2018-11-13T09:05:48.490Z,23.77
2018-11-13T09:08:23.422Z,24.63
2018-11-13T09:10:57.646Z,23.90
2018-11-13T09:13:31.454Z,26.53
2018-11-13T09:16:05.579Z,26.43
2018-11-13T09:18:39.423Z,24.50
2018-11-13T09:21:13.239Z,25.80
2018-11-13T09:23:48.159Z,25.23
2018-11-13T09:26:22.071Z,23.33
2018-11-13T09:28:55.940Z,23.43
2018-11-13T09:31:29.948Z,23.53
2018-11-13T09:34:04.962Z,22.13
2018-11-13T09:36:38.805Z,23.17
2018-11-13T09:39:13.158Z,23.97
2018-11-13T09:41:47.254Z,24.27
2018-11-13T09:44:21.278Z,23.80
2018-11-13T09:46:55.125Z,23.07
2018-11-13T09:49:28.954Z,23.67
2018-11-13T09:52:02.747Z,22.73
2018-11-13T09:54:36.545Z,21.53
2018-11-13T09:57:10.351Z,22.70
2018-11-13T09:59:44.223Z,21.80
2018-11-13T10:02:18.327Z,22.30
2018-11-13T10:04:53.824Z,20.03
2018-11-13T10:07:27.179Z,21.30
2018-11-13T10:10:02.137Z,20.60
2018-11-13T10:12:36.058Z,20.33
2018-11-13T10:15:14.278Z,21.47
2018-11-13T10:17:48.171Z,21.67
2018-11-13T10:20:22.231Z,21.37
2018-11-13T10:22:57.002Z,21.37
2018-11-13T10:25:30.846Z,21.07
2018-11-13T10:28:04.701Z,22.83
2018-11-13T10:30:39.491Z,20.83
2018-11-13T10:33:13.310Z,20.23
2018-11-13T10:35:48.177Z,19.60
2018-11-13T10:38:22.000Z,19.87
2018-11-13T10:40:57.086Z,20.07
2018-11-13T10:43:31.017Z,20.27
2018-11-13T10:46:06.190Z,19.70
2018-11-13T10:48:40.054Z,20.63
2018-11-13T10:51:21.842Z,19.20
2018-11-13T10:53:55.738Z,19.23
2018-11-13T10:56:29.859Z,19.03
2018-11-13T10:59:03.878Z,18.70
2018-11-13T11:03:47.936Z,18.93
2018-11-13T11:06:21.693Z,18.83
2018-11-13T11:08:55.509Z,18.23
2018-11-13T11:11:29.431Z,17.40
2018-11-13T11:14:04.925Z,17.67
2018-11-13T11:16:38.741Z,17.10
2018-11-13T11:19:23.202Z,17.23
2018-11-13T11:21:57.138Z,16.70
2018-11-13T11:24:31.140Z,17.07
2018-11-13T11:27:04.923Z,16.77
2018-11-13T11:29:39.721Z,15.50
2018-11-13T11:32:13.501Z,15.40
2018-11-13T11:34:51.517Z,15.00
2018-11-13T11:37:25.885Z,15.80
2018-11-13T11:39:59.746Z,15.13
2018-11-13T11:42:33.609Z,15.40
2018-11-13T11:45:14.201Z,15.43
2018-11-13T11:47:47.984Z,14.03
2018-11-13T11:50:22.828Z,13.73
2018-11-13T11:52:56.671Z,12.97
2018-11-13T11:55:32.585Z,13.80
2018-11-13T11:58:06.922Z,14.45
2018-11-13T12:00:41.918Z,12.90
2018-11-13T12:03:16.393Z,13.48
2018-11-13T12:05:51.811Z,12.47
2018-11-13T12:08:25.634Z,14.03
2018-11-13T12:10:59.512Z,12.77
2018-11-13T12:13:33.408Z,12.57
2018-11-13T12:16:07.844Z,13.38
2018-11-13T12:18:42.197Z,12.73
2018-11-13T12:21:16.236Z,13.77
2018-11-13T12:23:50.192Z,13.03
2018-11-13T12:29:08.385Z,14.07
2018-11-13T12:31:43.244Z,15.43
2018-11-13T12:34:17.043Z,15.80
2018-11-13T12:36:55.750Z,16.03
2018-11-13T12:39:29.547Z,14.80
2018-11-13T12:42:07.813Z,15.80
2018-11-13T12:44:41.657Z,15.43
2018-11-13T12:47:16.501Z,15.03
2018-11-13T12:49:50.324Z,15.23
2018-11-13T12:52:25.154Z,15.90
2018-11-13T12:54:58.999Z,14.53
2018-11-13T13:06:31.942Z,15.57
2018-11-13T13:09:08.184Z,14.67
2018-11-13T13:17:40.266Z,13.58
2018-11-13T13:20:17.077Z,13.78
2018-11-13T13:23:10.064Z,12.95
2018-11-13T13:25:44.569Z,14.30
2018-11-13T13:34:20.908Z,15.95
2018-11-13T13:36:55.339Z,14.00
2018-11-13T13:45:40.090Z,13.90
2018-11-13T13:48:14.666Z,12.73
2018-11-13T13:51:03.359Z,14.10
2018-11-13T13:53:37.882Z,12.28
2018-11-13T13:56:26.365Z,17.20
2018-11-13T13:59:00.259Z,12.53
2018-11-13T14:01:39.376Z,12.78
2018-11-13T14:04:13.807Z,13.30
2018-11-13T14:06:55.560Z,15.18
2018-11-13T14:09:29.947Z,14.15
2018-11-13T14:12:25.892Z,15.53
2018-11-13T14:14:59.855Z,16.30
2018-11-13T14:17:34.449Z,15.93
2018-11-13T14:34:56.865Z,16.03
2018-11-13T14:37:30.730Z,17.03
2018-11-13T14:40:17.475Z,16.20
2018-11-13T14:42:51.448Z,17.57
2018-11-13T14:45:37.518Z,19.73
2018-11-13T14:48:11.951Z,20.87
2018-11-13T14:50:52.213Z,11.88
2018-11-13T14:53:26.179Z,6.40
2018-11-13T14:56:05.421Z,6.70
2018-11-13T14:58:39.349Z,8.37
2018-11-13T15:01:13.301Z,8.30
2018-11-13T15:03:47.158Z,9.87
2018-11-13T15:06:22.234Z,10.60
2018-11-13T15:08:56.095Z,11.33
2018-11-13T15:11:46.261Z,12.33
2018-11-13T15:14:21.861Z,12.73
2018-11-13T15:17:13.715Z,11.83
2018-11-13T15:19:47.786Z,13.77
2018-11-13T15:22:40.462Z,14.07
2018-11-13T15:25:15.859Z,15.37
2018-11-13T15:34:08.078Z,13.30
2018-11-13T15:36:42.176Z,14.00
2018-11-13T15:39:25.034Z,15.67
2018-11-13T15:41:59.043Z,15.80
2018-11-13T15:44:35.022Z,15.40
2018-11-13T15:47:09.019Z,15.40
2018-11-13T15:49:43.091Z,16.17
2018-11-13T15:52:17.153Z,15.97
2018-11-13T15:55:10.278Z,15.80
2018-11-13T15:57:44.784Z,17.33
2018-11-13T16:00:34.726Z,17.67
2018-11-13T16:09:09.468Z,22.90
2018-11-13T16:11:43.415Z,12.13
2018-11-13T16:14:21.646Z,10.93
2018-11-13T16:16:55.509Z,10.07
2018-11-13T16:22:28.313Z,7.13
2018-11-13T16:25:02.062Z,7.10
2018-11-13T16:27:37.030Z,6.90
2018-11-13T16:30:13.211Z,6.87
2018-11-13T16:32:47.913Z,6.80
2018-11-13T16:35:22.702Z,6.90
2018-11-13T16:37:58.138Z,7.73
2018-11-13T16:40:32.720Z,8.03
2018-11-13T16:43:07.209Z,8.43
2018-11-13T16:45:41.014Z,8.03
2018-11-13T16:48:15.646Z,8.13
2018-11-13T16:50:50.130Z,7.73
2018-11-13T16:53:25.801Z,7.67
2018-11-13T16:56:03.078Z,8.00
2018-11-13T16:58:37.893Z,7.53
2018-11-13T17:01:11.687Z,7.93
2018-11-13T17:03:47.816Z,7.40
2018-11-13T17:06:21.721Z,8.37
2018-11-13T17:08:56.439Z,8.57
2018-11-13T17:11:30.400Z,8.87
2018-11-13T17:14:08.958Z,9.13
2018-11-13T17:16:42.886Z,8.93
2018-11-13T17:19:21.656Z,10.20
2018-11-13T17:21:55.576Z,11.10
2018-11-13T17:24:31.429Z,8.60
2018-11-13T17:27:05.251Z,7.97
2018-11-13T17:29:40.271Z,8.67
2018-11-13T17:32:14.028Z,7.53
2018-11-13T17:34:52.672Z,8.60
2018-11-13T17:37:27.548Z,8.63
2018-11-13T17:40:00.576Z,10.87
2018-11-13T17:42:34.433Z,10.33
2018-11-13T17:45:13.991Z,11.20
2018-11-13T17:47:47.928Z,9.97
2018-11-13T17:50:30.532Z,11.60
2018-11-13T17:53:04.731Z,10.73
2018-11-13T17:55:39.152Z,10.60
2018-11-13T17:58:14.312Z,11.30
2018-11-13T18:00:59.631Z,11.90
2018-11-13T18:03:33.384Z,11.83
2018-11-13T18:06:23.241Z,11.80
2018-11-13T18:08:57.001Z,12.57
2018-11-13T18:14:30.300Z,11.63
2018-11-13T18:17:04.279Z,13.50
2018-11-13T18:19:38.276Z,12.93
2018-11-13T18:22:12.295Z,13.57
2018-11-13T18:24:46.158Z,13.03
2018-11-13T18:27:19.987Z,13.53
2018-11-13T18:29:54.909Z,13.87
2018-11-13T18:32:28.727Z,13.43
2018-11-13T18:35:02.720Z,13.73
2018-11-13T18:37:36.772Z,12.17
2018-11-13T18:40:13.132Z,12.80
2018-11-13T18:42:47.863Z,13.40
2018-11-13T18:45:24.180Z,11.93
2018-11-13T18:47:58.004Z,12.83
2018-11-13T18:50:33.119Z,11.63
2018-11-13T18:53:06.950Z,11.77
2018-11-13T18:55:40.814Z,12.03
2018-11-13T18:58:14.602Z,10.73
2018-11-13T19:00:49.392Z,11.90
2018-11-13T19:03:23.168Z,11.13
2018-11-13T19:05:57.042Z,10.63
2018-11-13T19:08:30.864Z,9.57
2018-11-13T19:11:06.233Z,9.90
2018-11-13T19:13:40.156Z,9.93
2018-11-13T19:16:13.959Z,10.80
2018-11-13T19:18:47.812Z,10.27
2018-11-13T19:21:25.695Z,10.00
2018-11-13T19:23:59.583Z,9.87
2018-11-13T19:26:35.539Z,10.20
2018-11-13T19:29:09.442Z,10.33
2018-11-13T19:31:43.596Z,10.60
2018-11-13T19:34:17.524Z,11.43
2018-11-13T19:36:51.899Z,11.63
2018-11-13T19:39:25.921Z,12.10
2018-11-13T19:42:00.072Z,12.00
2018-11-13T19:44:34.228Z,12.23
2018-11-13T19:47:09.272Z,12.33
2018-11-13T19:49:43.283Z,12.20
2018-11-13T19:52:17.450Z,12.03
2018-11-13T19:54:51.298Z,11.83
2018-11-13T19:57:25.945Z,12.63
2018-11-13T19:59:59.974Z,12.10
2018-11-13T20:02:35.899Z,11.87
2018-11-13T20:05:11.329Z,12.43
2018-11-13T20:07:45.742Z,12.10
2018-11-13T20:10:20.877Z,12.47
2018-11-13T20:12:55.831Z,12.07
2018-11-13T20:15:30.961Z,11.67
2018-11-13T20:18:05.054Z,12.07
2018-11-13T20:20:40.368Z,13.03
2018-11-13T20:23:14.137Z,11.93
2018-11-13T20:25:50.026Z,11.70
2018-11-13T20:28:23.807Z,11.60
2018-11-13T20:30:59.092Z,11.73
2018-11-13T20:33:33.008Z,10.30
2018-11-13T20:36:08.129Z,10.37
2018-11-13T20:38:41.917Z,10.43
2018-11-13T20:41:16.765Z,9.20
2018-11-13T20:43:50.553Z,8.13
2018-11-13T20:46:24.561Z,8.07
2018-11-13T20:48:58.305Z,8.30
2018-11-13T20:51:32.316Z,8.03
2018-11-13T20:54:06.266Z,7.70
2018-11-13T20:56:40.118Z,6.80
2018-11-13T20:59:13.869Z,5.90
2018-11-13T21:01:49.850Z,5.90
2018-11-13T21:04:23.765Z,6.37
2018-11-13T21:06:57.581Z,6.10
2018-11-13T21:09:31.354Z,6.50
2018-11-13T21:12:05.536Z,6.33
2018-11-13T21:14:39.475Z,6.70
2018-11-13T21:17:14.929Z,6.83
2018-11-13T21:19:49.189Z,6.17
2018-11-13T21:22:23.589Z,6.07
2018-11-13T21:24:57.444Z,6.03
2018-11-13T21:27:32.007Z,5.77
2018-11-13T21:30:09.430Z,6.00
2018-11-13T21:32:46.085Z,5.93
2018-11-13T21:35:19.925Z,6.03
2018-11-13T21:38:05.738Z,5.90
2018-11-13T21:40:39.476Z,4.97
2018-11-13T21:43:13.313Z,5.43
2018-11-13T21:45:47.100Z,5.07
2018-11-13T21:48:21.971Z,4.80
2018-11-13T21:50:55.748Z,4.73
2018-11-13T21:53:30.580Z,4.33
2018-11-13T21:56:04.768Z,4.17
2018-11-13T21:58:38.640Z,4.30
2018-11-13T22:01:12.441Z,4.27
2018-11-13T22:03:46.447Z,3.87
2018-11-13T22:06:20.392Z,3.20
2018-11-13T22:08:55.237Z,3.20
2018-11-13T22:11:28.997Z,3.63
2018-11-13T22:14:03.957Z,2.97
2018-11-13T22:16:37.864Z,3.43
2018-11-13T22:19:13.771Z,2.90
2018-11-13T22:21:47.521Z,3.00
2018-11-13T22:24:22.372Z,2.87
2018-11-13T22:26:56.116Z,2.70
2018-11-13T22:29:30.137Z,3.10
2018-11-13T22:32:04.049Z,2.83
2018-11-13T22:34:38.917Z,2.60
2018-11-13T22:37:12.675Z,2.70
2018-11-13T22:39:47.522Z,2.40
2018-11-13T22:42:21.449Z,2.50
2018-11-13T22:44:55.279Z,2.63
2018-11-13T22:47:29.103Z,2.20
2018-11-13T22:50:05.000Z,2.70
2018-11-13T22:52:38.958Z,2.67
2018-11-13T22:55:14.409Z,2.83
2018-11-13T22:57:49.067Z,2.40
2018-11-13T23:00:30.219Z,2.50
2018-11-13T23:03:04.180Z,2.70
2018-11-13T23:05:39.308Z,2.67
2018-11-13T23:08:14.424Z,2.93
2018-11-13T23:10:49.269Z,3.07
2018-11-13T23:13:23.381Z,2.50
2018-11-13T23:15:58.211Z,2.57
2018-11-13T23:18:31.970Z,2.67
2018-11-13T23:21:05.855Z,2.13
2018-11-13T23:23:39.618Z,2.43
2018-11-13T23:26:14.414Z,2.70
2018-11-13T23:28:48.138Z,2.50
2018-11-13T23:31:21.953Z,2.27
2018-11-13T23:33:56.761Z,2.40
2018-11-13T23:36:30.548Z,2.30
2018-11-13T23:39:05.856Z,2.30
2018-11-13T23:41:39.616Z,2.80
2018-11-13T23:44:13.463Z,2.97
2018-11-13T23:46:47.392Z,2.70
2018-11-13T23:49:22.232Z,2.03
2018-11-13T23:51:56.212Z,2.47
2018-11-13T23:54:34.986Z,2.27
2018-11-13T23:57:08.794Z,2.50
2018-11-13T23:59:42.631Z,2.23
